createdAt,value
2022-07-28T00:00:01.272Z,0.00
2022-07-28T00:01:01.248Z,0.00
2022-07-28T00:02:01.332Z,0.00
2022-07-28T00:03:01.306Z,0.00
2022-07-28T00:04:01.219Z,0.00
2022-07-28T00:05:01.230Z,0.00
2022-07-28T00:06:01.195Z,0.00
2022-07-28T00:07:01.187Z,0.00
2022-07-28T00:08:01.175Z,0.00
2022-07-28T00:09:01.172Z,0.00
2022-07-28T00:10:01.275Z,0.00
2022-07-28T00:11:01.157Z,0.00
2022-07-28T00:12:01.130Z,0.00
2022-07-28T00:13:01.118Z,0.00
2022-07-28T00:14:01.102Z,0.00
2022-07-28T00:15:01.108Z,0.00
2022-07-28T00:16:01.158Z,0.00
2022-07-28T00:17:01.067Z,0.00
2022-07-28T00:18:01.083Z,0.00
2022-07-28T00:19:01.046Z,0.00
2022-07-28T00:20:01.034Z,0.00
2022-07-28T00:21:01.037Z,0.00
2022-07-28T00:22:01.011Z,0.00
2022-07-28T00:23:01.002Z,0.00
2022-07-28T00:24:00.989Z,0.00
2022-07-28T00:25:00.991Z,0.00
2022-07-28T00:26:00.991Z,0.00
2022-07-28T00:27:00.964Z,0.00
2022-07-28T00:28:00.955Z,0.00
2022-07-28T00:29:00.939Z,0.00
2022-07-28T00:30:00.926Z,0.00
2022-07-28T00:31:05.619Z,0.00
2022-07-28T00:32:01.961Z,0.00
2022-07-28T00:33:00.898Z,0.00
2022-07-28T00:34:00.894Z,0.00
2022-07-28T00:35:00.877Z,0.00
2022-07-28T00:36:00.871Z,0.00
2022-07-28T00:37:00.872Z,0.00
2022-07-28T00:38:01.842Z,0.00
2022-07-28T00:39:00.834Z,0.00
2022-07-28T00:40:00.814Z,0.00
2022-07-28T00:41:00.804Z,0.00
2022-07-28T00:42:00.815Z,0.00
2022-07-28T00:43:00.792Z,0.00
2022-07-28T00:44:00.772Z,0.00
2022-07-28T00:45:00.761Z,0.00
2022-07-28T00:46:00.757Z,0.00
2022-07-28T00:47:00.814Z,0.00
2022-07-28T00:48:00.735Z,0.00
2022-07-28T00:49:00.783Z,0.00
2022-07-28T00:50:00.714Z,0.00
2022-07-28T00:51:00.717Z,0.00
2022-07-28T00:52:00.702Z,0.00
2022-07-28T00:53:00.677Z,0.00
2022-07-28T00:54:00.670Z,0.00
2022-07-28T00:55:00.654Z,0.00
2022-07-28T00:56:05.919Z,0.00
2022-07-28T00:57:01.649Z,0.00
2022-07-28T00:58:00.624Z,0.00
2022-07-28T00:59:00.603Z,0.00
2022-07-28T01:00:00.600Z,0.00
2022-07-28T01:01:00.645Z,0.00
2022-07-28T01:02:00.782Z,0.00
2022-07-28T01:03:00.648Z,0.00
2022-07-28T01:04:00.546Z,0.00
2022-07-28T01:05:00.543Z,0.00
2022-07-28T01:06:00.527Z,0.00
2022-07-28T01:07:00.539Z,0.00
2022-07-28T01:08:00.514Z,0.00
2022-07-28T01:09:00.492Z,0.00
2022-07-28T01:10:00.493Z,0.00
2022-07-28T01:11:00.469Z,0.00
2022-07-28T01:12:00.481Z,0.00
2022-07-28T01:13:00.449Z,0.00
2022-07-28T01:14:00.436Z,0.00
2022-07-28T01:15:00.432Z,0.00
2022-07-28T01:16:00.492Z,0.00
2022-07-28T01:17:00.426Z,0.00
2022-07-28T01:18:00.392Z,0.00
2022-07-28T01:19:00.390Z,0.00
2022-07-28T01:20:00.387Z,0.00
2022-07-28T01:21:00.369Z,0.00
2022-07-28T01:22:00.362Z,0.00
2022-07-28T01:23:00.338Z,0.00
2022-07-28T01:24:00.332Z,0.00
2022-07-28T01:25:00.323Z,0.00
2022-07-28T01:26:00.305Z,0.00
2022-07-28T01:27:00.315Z,0.00
2022-07-28T01:28:00.283Z,0.00
2022-07-28T01:29:00.279Z,0.00
2022-07-28T01:30:00.265Z,0.00
2022-07-28T01:31:00.316Z,0.00
2022-07-28T01:32:00.257Z,0.00
2022-07-28T01:33:00.231Z,0.00
2022-07-28T01:34:00.220Z,0.00
2022-07-28T01:35:00.217Z,0.00
2022-07-28T01:36:00.199Z,0.00
2022-07-28T01:37:00.189Z,0.00
2022-07-28T01:39:21.477Z,0.00
2022-07-28T01:40:09.955Z,0.00
2022-07-28T01:41:09.938Z,0.00
2022-07-28T01:42:09.938Z,0.00
2022-07-28T01:43:13.088Z,0.00
2022-07-28T01:44:09.956Z,0.00
2022-07-28T01:45:09.894Z,0.00
2022-07-28T01:46:09.928Z,0.00
2022-07-28T01:47:09.879Z,0.00
2022-07-28T01:48:09.860Z,0.00
2022-07-28T01:49:09.926Z,0.00
2022-07-28T01:50:09.849Z,0.00
2022-07-28T01:51:09.833Z,0.00
2022-07-28T01:52:09.829Z,0.00
2022-07-28T01:53:09.811Z,0.00
2022-07-28T01:54:09.830Z,0.00
2022-07-28T01:55:09.790Z,0.00
2022-07-28T01:56:09.777Z,0.00
2022-07-28T01:57:09.772Z,0.00
2022-07-28T01:58:09.761Z,0.00
2022-07-28T01:59:09.766Z,0.00
2022-07-28T02:00:09.736Z,0.00
2022-07-28T02:01:09.804Z,0.00
2022-07-28T02:02:09.855Z,0.00
2022-07-28T02:03:09.700Z,0.00
2022-07-28T02:04:09.814Z,0.00
2022-07-28T02:05:09.741Z,0.00
2022-07-28T02:06:09.665Z,0.00
2022-07-28T02:07:09.673Z,0.00
2022-07-28T02:08:09.648Z,0.00
2022-07-28T02:09:09.646Z,0.00
2022-07-28T02:10:09.626Z,0.00
2022-07-28T02:11:10.019Z,0.00
2022-07-28T02:12:09.602Z,0.00
2022-07-28T02:13:09.591Z,0.00
2022-07-28T02:14:09.596Z,0.00
2022-07-28T02:15:09.565Z,0.00
2022-07-28T02:16:09.608Z,0.00
2022-07-28T02:17:09.541Z,0.00
2022-07-28T02:18:09.541Z,0.00
2022-07-28T02:19:09.541Z,0.00
2022-07-28T02:20:09.508Z,0.00
2022-07-28T02:21:09.503Z,0.00
2022-07-28T02:22:09.492Z,0.00
2022-07-28T02:23:09.485Z,0.00
2022-07-28T02:24:09.473Z,0.00
2022-07-28T02:25:09.453Z,0.00
2022-07-28T02:26:09.443Z,0.00
2022-07-28T02:27:09.435Z,0.00
2022-07-28T02:28:09.415Z,0.00
2022-07-28T02:29:22.286Z,0.00
2022-07-28T02:30:10.391Z,0.00
2022-07-28T02:31:09.477Z,0.00
2022-07-28T02:32:26.830Z,0.00
2022-07-28T02:33:10.363Z,0.00
2022-07-28T02:34:09.363Z,0.00
2022-07-28T02:35:09.629Z,0.00
2022-07-28T02:36:09.324Z,0.00
2022-07-28T02:37:09.315Z,0.00
2022-07-28T02:38:09.309Z,0.00
2022-07-28T02:39:09.325Z,0.00
2022-07-28T02:40:09.320Z,0.00
2022-07-28T02:41:09.290Z,0.00
2022-07-28T02:42:09.267Z,0.00
2022-07-28T02:43:09.248Z,0.00
2022-07-28T02:44:09.277Z,0.00
2022-07-28T02:45:09.235Z,0.00
2022-07-28T02:46:09.320Z,0.00
2022-07-28T02:47:09.202Z,0.00
2022-07-28T02:48:09.197Z,0.00
2022-07-28T02:49:09.281Z,0.00
2022-07-28T02:50:09.169Z,0.00
2022-07-28T02:51:09.159Z,0.00
2022-07-28T02:52:09.156Z,0.00
2022-07-28T02:53:14.852Z,0.00
2022-07-28T02:54:10.324Z,0.00
2022-07-28T02:55:09.124Z,0.00
2022-07-28T02:56:09.121Z,0.00
2022-07-28T02:57:09.091Z,0.00
2022-07-28T02:58:09.077Z,0.00
2022-07-28T02:59:09.075Z,0.00
2022-07-28T03:00:09.078Z,0.00
2022-07-28T03:01:09.111Z,0.00
2022-07-28T03:02:09.038Z,0.00
2022-07-28T03:03:09.030Z,0.00
2022-07-28T03:04:09.009Z,0.00
2022-07-28T03:05:11.420Z,0.00
2022-07-28T03:06:08.985Z,0.00
2022-07-28T03:07:08.993Z,0.00
2022-07-28T03:08:08.974Z,0.00
2022-07-28T03:09:08.965Z,0.00
2022-07-28T03:10:08.972Z,0.00
2022-07-28T03:11:08.939Z,0.00
2022-07-28T03:12:08.919Z,0.00
2022-07-28T03:13:08.916Z,0.00
2022-07-28T03:14:08.897Z,0.00
2022-07-28T03:15:08.917Z,0.00
2022-07-28T03:16:08.882Z,0.00
2022-07-28T03:17:09.009Z,0.00
2022-07-28T03:18:08.866Z,0.00
2022-07-28T03:19:08.849Z,0.00
2022-07-28T03:20:08.877Z,4.00
2022-07-28T03:21:08.822Z,4.00
2022-07-28T03:22:10.570Z,4.00
2022-07-28T03:23:08.802Z,0.00
2022-07-28T03:24:08.799Z,0.00
2022-07-28T03:25:08.779Z,4.00
2022-07-28T03:26:08.779Z,4.00
2022-07-28T03:27:08.749Z,4.00
2022-07-28T03:28:08.740Z,4.00
2022-07-28T03:29:08.729Z,8.00
2022-07-28T03:30:08.728Z,4.00
2022-07-28T03:31:08.794Z,8.00
2022-07-28T03:32:08.694Z,8.00
2022-07-28T03:33:08.682Z,8.00
2022-07-28T03:34:08.680Z,8.00
2022-07-28T03:35:08.661Z,12.00
2022-07-28T03:36:08.685Z,12.00
2022-07-28T03:37:08.655Z,16.00
2022-07-28T03:38:08.627Z,16.00
2022-07-28T03:39:08.629Z,20.00
2022-07-28T03:40:08.606Z,20.00
2022-07-28T03:41:08.605Z,24.00
2022-07-28T03:42:08.587Z,24.00
2022-07-28T03:43:08.570Z,24.00
2022-07-28T03:44:08.559Z,32.00
2022-07-28T03:45:08.548Z,36.00
2022-07-28T03:46:12.997Z,36.00
2022-07-28T03:47:08.524Z,40.00
2022-07-28T03:48:08.523Z,40.00
2022-07-28T03:49:08.625Z,48.00
2022-07-28T03:50:08.500Z,48.00
2022-07-28T03:51:08.502Z,56.00
2022-07-28T03:52:08.468Z,60.00
2022-07-28T03:53:08.463Z,64.00
2022-07-28T03:54:08.464Z,72.00
2022-07-28T03:55:08.442Z,80.00
2022-07-28T03:56:08.436Z,88.00
2022-07-28T03:57:08.412Z,96.00
2022-07-28T03:58:08.410Z,108.00
2022-07-28T03:59:08.395Z,120.00
2022-07-28T04:00:09.907Z,132.00
2022-07-28T04:01:08.457Z,144.00
2022-07-28T04:02:08.468Z,156.00
2022-07-28T04:03:35.693Z,168.00
2022-07-28T04:04:09.337Z,180.00
2022-07-28T04:05:08.333Z,192.00
2022-07-28T04:06:08.328Z,208.00
2022-07-28T04:07:08.308Z,216.00
2022-07-28T04:08:08.297Z,228.00
2022-07-28T04:09:08.279Z,236.00
2022-07-28T04:10:08.269Z,252.00
2022-07-28T04:11:08.280Z,264.00
2022-07-28T04:12:08.254Z,280.00
2022-07-28T04:13:08.232Z,296.00
2022-07-28T04:14:10.989Z,316.00
2022-07-28T04:15:09.222Z,328.00
2022-07-28T04:16:08.207Z,340.00
2022-07-28T04:17:08.274Z,344.00
2022-07-28T04:18:08.187Z,344.00
2022-07-28T04:19:08.166Z,340.00
2022-07-28T04:20:08.158Z,336.00
2022-07-28T04:21:08.155Z,336.00
2022-07-28T04:22:08.152Z,344.00
2022-07-28T04:23:08.125Z,348.00
2022-07-28T04:24:08.117Z,364.00
2022-07-28T04:25:08.101Z,376.00
2022-07-28T04:26:08.096Z,388.00
2022-07-28T04:27:08.089Z,396.00
2022-07-28T04:28:08.073Z,416.00
2022-07-28T04:29:08.055Z,440.00
2022-07-28T04:30:08.053Z,460.00
2022-07-28T04:31:08.104Z,456.00
2022-07-28T04:32:08.035Z,456.00
2022-07-28T04:34:39.337Z,576.00
2022-07-28T04:35:17.894Z,540.00
2022-07-28T04:37:27.622Z,492.00
2022-07-28T04:38:28.596Z,476.00
2022-07-28T04:39:27.587Z,492.00
2022-07-28T04:40:27.579Z,520.00
2022-07-28T04:41:27.566Z,560.00
2022-07-28T04:42:27.564Z,608.00
2022-07-28T04:43:27.541Z,656.00
2022-07-28T04:44:27.540Z,704.00
2022-07-28T04:45:27.541Z,768.00
2022-07-28T04:46:27.546Z,840.00
2022-07-28T04:47:27.509Z,940.00
2022-07-28T04:48:27.489Z,1044.00
2022-07-28T04:49:27.481Z,1128.00
2022-07-28T04:50:27.465Z,1176.00
2022-07-28T04:51:27.469Z,1224.00
2022-07-28T04:52:27.466Z,1240.00
2022-07-28T04:53:27.436Z,1264.00
2022-07-28T04:54:27.422Z,1264.00
2022-07-28T04:55:27.421Z,1264.00
2022-07-28T04:56:27.407Z,1252.00
2022-07-28T04:57:27.413Z,1248.00
2022-07-28T04:58:27.385Z,1280.00
2022-07-28T04:59:27.372Z,1276.00
2022-07-28T05:00:27.357Z,1240.00
2022-07-28T05:01:27.420Z,1260.00
2022-07-28T05:02:27.333Z,1284.00
2022-07-28T05:03:28.753Z,1244.00
2022-07-28T05:04:27.377Z,1276.00
2022-07-28T05:05:27.303Z,1352.00
2022-07-28T05:06:27.283Z,1456.00
2022-07-28T05:07:27.273Z,1440.00
2022-07-28T05:08:27.274Z,1436.00
2022-07-28T05:09:27.259Z,1452.00
2022-07-28T05:10:27.247Z,1500.00
2022-07-28T05:11:27.240Z,1544.00
2022-07-28T05:12:27.226Z,1548.00
2022-07-28T05:13:33.373Z,1564.00
2022-07-28T05:14:28.203Z,1556.00
2022-07-28T05:15:27.192Z,1580.00
2022-07-28T05:16:27.228Z,1552.00
2022-07-28T05:17:27.168Z,1528.00
2022-07-28T05:18:27.164Z,1564.00
2022-07-28T05:19:27.139Z,1620.00
2022-07-28T05:20:27.133Z,1680.00
2022-07-28T05:21:27.117Z,1704.00
2022-07-28T05:22:27.111Z,1744.00
2022-07-28T05:23:27.116Z,1768.00
2022-07-28T05:24:27.091Z,1796.00
2022-07-28T05:25:27.070Z,1808.00
2022-07-28T05:26:27.066Z,1788.00
2022-07-28T05:27:27.048Z,1764.00
2022-07-28T05:28:27.037Z,1748.00
2022-07-28T05:29:37.645Z,1756.00
2022-07-28T05:30:28.023Z,1796.00
2022-07-28T05:31:27.050Z,1824.00
2022-07-28T05:32:27.029Z,1884.00
2022-07-28T05:33:30.199Z,1980.00
2022-07-28T05:34:27.986Z,2044.00
2022-07-28T05:35:26.962Z,2072.00
2022-07-28T05:36:26.953Z,2088.00
2022-07-28T05:37:26.942Z,2128.00
2022-07-28T05:38:26.924Z,2144.00
2022-07-28T05:39:26.920Z,2168.00
2022-07-28T05:40:26.919Z,2184.00
2022-07-28T05:41:26.897Z,2172.00
2022-07-28T05:42:26.879Z,2132.00
2022-07-28T05:43:26.875Z,2096.00
2022-07-28T05:44:26.856Z,2076.00
2022-07-28T05:45:26.907Z,2060.00
2022-07-28T05:46:26.834Z,2064.00
2022-07-28T05:47:26.835Z,2048.00
2022-07-28T05:48:26.816Z,2044.00
2022-07-28T05:49:26.850Z,1980.00
2022-07-28T05:50:26.803Z,1944.00
2022-07-28T05:51:26.781Z,1860.00
2022-07-28T05:52:26.774Z,1804.00
2022-07-28T05:53:26.759Z,1756.00
2022-07-28T05:54:26.744Z,1852.00
2022-07-28T05:55:26.755Z,1736.00
2022-07-28T05:56:26.725Z,1760.00
2022-07-28T05:57:26.729Z,1820.00
2022-07-28T05:58:26.700Z,1932.00
2022-07-28T05:59:26.694Z,2100.00
2022-07-28T06:00:26.676Z,2284.00
2022-07-28T06:01:26.748Z,3096.00
2022-07-28T06:02:26.716Z,3768.00
2022-07-28T06:03:26.648Z,5808.00
2022-07-28T06:04:28.286Z,5600.00
2022-07-28T06:05:26.627Z,6768.00
2022-07-28T06:06:26.622Z,3584.00
2022-07-28T06:07:42.665Z,6228.00
2022-07-28T06:08:27.588Z,5808.00
2022-07-28T06:09:26.574Z,6104.00
2022-07-28T06:10:26.564Z,11264.00
2022-07-28T06:11:26.571Z,7044.00
2022-07-28T06:12:26.550Z,7776.00
2022-07-28T06:13:26.529Z,13760.00
2022-07-28T06:14:26.526Z,11288.00
2022-07-28T06:15:26.524Z,14208.00
2022-07-28T06:16:26.590Z,14528.00
2022-07-28T06:17:26.492Z,14496.00
2022-07-28T06:18:26.475Z,10620.00
2022-07-28T06:19:26.471Z,7172.00
2022-07-28T06:20:26.532Z,8540.00
2022-07-28T06:21:26.464Z,7060.00
2022-07-28T06:22:26.438Z,7692.00
2022-07-28T06:23:26.424Z,5048.00
2022-07-28T06:24:26.407Z,5472.00
2022-07-28T06:25:26.404Z,6016.00
2022-07-28T06:26:26.401Z,6400.00
2022-07-28T06:27:26.394Z,6348.00
2022-07-28T06:28:26.363Z,5360.00
2022-07-28T06:29:26.354Z,5852.00
2022-07-28T06:30:26.446Z,6276.00
2022-07-28T06:31:26.421Z,5208.00
2022-07-28T06:32:26.332Z,4668.00
2022-07-28T06:33:26.320Z,3996.00
2022-07-28T06:34:26.312Z,3612.00
2022-07-28T06:35:26.302Z,3388.00
2022-07-28T06:36:26.290Z,3216.00
2022-07-28T06:37:26.278Z,3172.00
2022-07-28T06:38:26.257Z,3088.00
2022-07-28T06:39:26.240Z,3108.00
2022-07-28T06:40:26.312Z,3144.00
2022-07-28T06:41:26.230Z,3208.00
2022-07-28T06:42:26.208Z,3336.00
2022-07-28T06:43:26.219Z,3792.00
2022-07-28T06:44:42.616Z,3836.00
2022-07-28T06:45:27.185Z,4476.00
2022-07-28T06:46:26.231Z,4288.00
2022-07-28T06:47:26.192Z,5672.00
2022-07-28T06:48:29.242Z,5760.00
2022-07-28T06:49:26.185Z,6028.00
2022-07-28T06:50:27.117Z,8064.00
2022-07-28T06:51:26.122Z,7840.00
2022-07-28T06:52:26.104Z,7868.00
2022-07-28T06:53:26.099Z,7880.00
2022-07-28T06:54:26.080Z,8072.00
2022-07-28T06:55:26.076Z,8836.00
2022-07-28T06:56:27.066Z,9856.00
2022-07-28T06:57:28.080Z,10972.00
2022-07-28T06:58:27.063Z,24672.00
2022-07-28T06:59:26.051Z,42880.00
2022-07-28T07:00:26.046Z,46592.00
2022-07-28T07:01:26.057Z,47840.00
2022-07-28T07:02:28.143Z,47904.00
2022-07-28T07:03:25.987Z,48672.00
2022-07-28T07:04:26.091Z,37088.00
2022-07-28T07:05:25.964Z,21568.00
2022-07-28T07:06:25.950Z,18464.00
2022-07-28T07:07:25.938Z,20896.00
2022-07-28T07:08:25.943Z,18880.00
2022-07-28T07:09:25.915Z,16800.00
2022-07-28T07:10:26.023Z,17120.00
2022-07-28T07:11:25.886Z,13832.00
2022-07-28T07:12:25.884Z,12168.00
2022-07-28T07:13:25.884Z,8508.00
2022-07-28T07:14:25.855Z,6164.00
2022-07-28T07:15:25.849Z,5140.00
2022-07-28T07:16:25.877Z,4500.00
2022-07-28T07:17:25.820Z,4460.00
2022-07-28T07:18:25.814Z,4432.00
2022-07-28T07:19:25.810Z,4580.00
2022-07-28T07:20:25.859Z,4856.00
2022-07-28T07:21:25.782Z,5576.00
2022-07-28T07:22:25.806Z,6032.00
2022-07-28T07:23:25.756Z,7792.00
2022-07-28T07:24:25.770Z,5744.00
2022-07-28T07:25:25.753Z,8716.00
2022-07-28T07:26:25.723Z,10804.00
2022-07-28T07:27:25.712Z,11756.00
2022-07-28T07:28:25.711Z,6656.00
2022-07-28T07:29:25.691Z,4504.00
2022-07-28T07:30:26.702Z,3656.00
2022-07-28T07:31:25.716Z,3556.00
2022-07-28T07:32:25.658Z,3468.00
2022-07-28T07:33:25.648Z,4016.00
2022-07-28T07:34:25.642Z,5804.00
2022-07-28T07:35:25.645Z,6876.00
2022-07-28T07:36:25.621Z,4520.00
2022-07-28T07:37:25.611Z,4296.00
2022-07-28T07:38:29.156Z,4496.00
2022-07-28T07:39:25.590Z,5060.00
2022-07-28T07:40:25.603Z,4916.00
2022-07-28T07:41:25.566Z,7964.00
2022-07-28T07:42:25.547Z,11100.00
2022-07-28T07:43:25.552Z,7384.00
2022-07-28T07:44:25.525Z,5432.00
2022-07-28T07:45:25.519Z,6836.00
2022-07-28T07:46:25.552Z,4912.00
2022-07-28T07:47:25.494Z,5228.00
2022-07-28T07:48:25.481Z,6780.00
2022-07-28T07:49:25.560Z,6728.00
2022-07-28T07:50:26.456Z,4932.00
2022-07-28T07:51:25.459Z,4524.00
2022-07-28T07:52:25.444Z,4688.00
2022-07-28T07:53:25.432Z,6752.00
2022-07-28T07:54:25.423Z,7600.00
2022-07-28T07:55:25.418Z,7032.00
2022-07-28T07:56:25.405Z,7484.00
2022-07-28T07:57:25.387Z,6540.00
2022-07-28T07:58:25.375Z,6392.00
2022-07-28T07:59:25.368Z,10708.00
2022-07-28T08:00:29.116Z,11684.00
2022-07-28T08:01:25.397Z,8500.00
2022-07-28T08:02:25.335Z,4992.00
2022-07-28T08:03:26.414Z,4852.00
2022-07-28T08:04:25.545Z,5136.00
2022-07-28T08:05:35.077Z,6664.00
2022-07-28T08:06:26.888Z,6348.00
2022-07-28T08:07:25.282Z,7804.00
2022-07-28T08:08:25.268Z,10112.00
2022-07-28T08:09:25.309Z,18240.00
2022-07-28T08:10:25.249Z,11652.00
2022-07-28T08:11:25.222Z,7388.00
2022-07-28T08:12:25.682Z,16544.00
2022-07-28T08:13:25.200Z,36704.00
2022-07-28T08:14:25.199Z,22176.00
2022-07-28T08:15:25.181Z,5444.00
2022-07-28T08:16:25.292Z,6684.00
2022-07-28T08:17:26.243Z,9988.00
2022-07-28T08:20:44.908Z,8248.00
2022-07-28T08:21:44.882Z,5536.00
2022-07-28T08:22:44.877Z,5280.00
2022-07-28T08:23:44.867Z,5816.00
2022-07-28T08:24:44.846Z,7560.00
2022-07-28T08:25:44.839Z,6776.00
2022-07-28T08:26:44.823Z,10300.00
2022-07-28T08:27:44.809Z,19424.00
2022-07-28T08:28:44.792Z,48512.00
2022-07-28T08:32:04.381Z,23872.00
2022-07-28T08:33:04.367Z,11760.00
2022-07-28T08:34:04.369Z,8216.00
2022-07-28T08:35:31.546Z,6068.00
2022-07-28T08:36:05.338Z,8816.00
2022-07-28T08:37:04.328Z,5180.00
2022-07-28T08:38:04.319Z,5196.00
2022-07-28T08:39:04.327Z,5292.00
2022-07-28T08:40:04.301Z,5336.00
2022-07-28T08:41:04.291Z,5532.00
2022-07-28T08:42:04.287Z,8364.00
2022-07-28T08:43:04.292Z,10944.00
2022-07-28T08:44:04.257Z,29888.00
2022-07-28T08:45:04.256Z,30528.00
2022-07-28T08:46:04.295Z,34432.00
2022-07-28T08:47:04.285Z,8072.00
2022-07-28T08:48:09.227Z,7228.00
2022-07-28T08:49:05.268Z,6988.00
2022-07-28T08:50:04.205Z,10052.00
2022-07-28T08:51:04.179Z,10668.00
2022-07-28T08:52:04.175Z,13836.00
2022-07-28T08:53:04.159Z,16608.00
2022-07-28T08:54:04.151Z,18816.00
2022-07-28T08:55:04.153Z,20192.00
2022-07-28T08:56:04.118Z,17792.00
2022-07-28T08:57:04.106Z,13932.00
2022-07-28T08:58:04.101Z,19680.00
2022-07-28T08:59:04.099Z,10552.00
2022-07-28T09:00:04.082Z,11508.00
2022-07-28T09:01:04.085Z,24736.00
2022-07-28T09:02:04.172Z,36768.00
2022-07-28T09:03:04.109Z,38208.00
2022-07-28T09:04:04.035Z,68576.00
2022-07-28T09:05:04.034Z,83296.00
2022-07-28T09:06:04.033Z,81504.00
2022-07-28T09:07:04.004Z,80768.00
2022-07-28T09:08:03.994Z,79552.00
2022-07-28T09:09:03.988Z,78112.00
2022-07-28T09:10:03.992Z,78496.00
2022-07-28T09:11:03.976Z,78560.00
2022-07-28T09:12:03.945Z,82304.00
2022-07-28T09:13:03.933Z,81568.00
2022-07-28T09:14:03.923Z,79520.00
2022-07-28T09:15:03.928Z,86752.00
2022-07-28T09:16:03.998Z,89440.00
2022-07-28T09:17:05.490Z,87552.00
2022-07-28T09:18:03.887Z,85952.00
2022-07-28T09:19:03.881Z,86656.00
2022-07-28T09:20:08.833Z,84928.00
2022-07-28T09:21:04.865Z,83328.00
2022-07-28T09:22:03.848Z,72064.00
2022-07-28T09:23:03.827Z,64128.00
2022-07-28T09:24:03.837Z,65088.00
2022-07-28T09:25:03.813Z,72544.00
2022-07-28T09:26:08.423Z,74048.00
2022-07-28T09:27:04.811Z,75264.00
2022-07-28T09:28:03.779Z,74688.00
2022-07-28T09:29:03.783Z,74496.00
2022-07-28T09:30:03.756Z,77152.00
2022-07-28T09:31:03.856Z,77248.00
2022-07-28T09:32:03.837Z,74656.00
2022-07-28T09:33:03.726Z,70624.00
2022-07-28T09:34:03.726Z,56000.00
2022-07-28T09:35:03.722Z,34560.00
2022-07-28T09:36:03.707Z,27904.00
2022-07-28T09:37:03.700Z,29088.00
2022-07-28T09:38:03.680Z,45504.00
2022-07-28T09:39:03.676Z,68800.00
2022-07-28T09:40:04.108Z,77888.00
2022-07-28T09:41:03.657Z,80960.00
2022-07-28T09:42:03.667Z,82368.00
2022-07-28T09:43:03.646Z,80832.00
2022-07-28T09:44:03.628Z,75904.00
2022-07-28T09:45:21.883Z,75776.00
2022-07-28T09:46:04.731Z,75104.00
2022-07-28T09:47:03.799Z,81920.00
2022-07-28T09:48:03.802Z,82784.00
2022-07-28T09:49:03.817Z,81248.00
2022-07-28T09:50:03.683Z,78816.00
2022-07-28T09:51:03.550Z,78528.00
2022-07-28T09:52:03.593Z,76576.00
2022-07-28T09:53:03.529Z,53536.00
2022-07-28T09:54:03.529Z,43104.00
2022-07-28T09:55:03.519Z,33568.00
2022-07-28T09:56:03.508Z,13000.00
2022-07-28T09:57:03.521Z,11536.00
2022-07-28T09:58:03.500Z,12840.00
2022-07-28T09:59:03.495Z,18272.00
2022-07-28T10:00:03.462Z,30112.00
2022-07-28T10:01:03.455Z,21984.00
2022-07-28T10:02:03.520Z,29408.00
2022-07-28T10:03:03.565Z,51424.00
2022-07-28T10:04:03.430Z,64032.00
2022-07-28T10:05:03.420Z,76064.00
2022-07-28T10:06:03.402Z,81440.00
2022-07-28T10:07:03.400Z,80576.00
2022-07-28T10:08:03.414Z,83840.00
2022-07-28T10:09:03.374Z,80256.00
2022-07-28T10:10:03.374Z,80768.00
2022-07-28T10:11:03.354Z,74496.00
2022-07-28T10:12:03.357Z,74368.00
2022-07-28T10:13:03.337Z,77760.00
2022-07-28T10:14:03.343Z,79296.00
2022-07-28T10:15:03.321Z,79488.00
2022-07-28T10:16:03.396Z,83168.00
2022-07-28T10:17:06.127Z,82112.00
2022-07-28T10:18:03.292Z,79360.00
2022-07-28T10:19:03.295Z,78400.00
2022-07-28T10:20:03.275Z,80896.00
2022-07-28T10:21:03.266Z,84352.00
2022-07-28T10:22:03.261Z,84640.00
2022-07-28T10:23:03.255Z,80992.00
2022-07-28T10:24:03.232Z,85440.00
2022-07-28T10:25:03.244Z,81312.00
2022-07-28T10:26:03.210Z,74976.00
2022-07-28T10:27:04.218Z,74848.00
2022-07-28T10:28:03.198Z,79968.00
2022-07-28T10:29:03.190Z,76864.00
2022-07-28T10:30:03.185Z,78464.00
2022-07-28T10:31:03.273Z,79072.00
2022-07-28T10:32:03.164Z,75232.00
2022-07-28T10:33:03.161Z,68960.00
2022-07-28T10:34:03.135Z,74272.00
2022-07-28T10:35:03.151Z,77824.00
2022-07-28T10:36:03.129Z,80672.00
2022-07-28T10:37:03.114Z,82912.00
2022-07-28T10:38:03.105Z,85824.00
2022-07-28T10:39:03.092Z,84864.00
2022-07-28T10:40:07.776Z,82208.00
2022-07-28T10:41:04.080Z,79584.00
2022-07-28T10:42:03.072Z,77856.00
2022-07-28T10:43:03.055Z,63968.00
2022-07-28T10:44:03.052Z,65888.00
2022-07-28T10:45:03.052Z,64992.00
2022-07-28T10:46:08.117Z,57088.00
2022-07-28T10:47:04.076Z,66656.00
2022-07-28T10:48:03.016Z,87872.00
2022-07-28T10:49:03.564Z,36672.00
2022-07-28T10:50:03.006Z,19296.00
2022-07-28T10:51:02.991Z,16000.00
2022-07-28T10:52:08.754Z,14752.00
2022-07-28T10:53:03.969Z,15360.00
2022-07-28T10:54:02.958Z,13436.00
2022-07-28T10:55:02.957Z,13544.00
2022-07-28T10:56:02.931Z,13472.00
2022-07-28T10:57:04.705Z,13780.00
2022-07-28T10:58:11.609Z,12792.00
2022-07-28T10:59:05.041Z,13440.00
2022-07-28T11:00:12.854Z,12324.00
2022-07-28T11:01:06.358Z,11940.00
2022-07-28T11:02:03.038Z,11924.00
2022-07-28T11:03:13.515Z,11816.00
2022-07-28T11:04:03.858Z,11728.00
2022-07-28T11:05:02.854Z,11456.00
2022-07-28T11:06:02.860Z,11260.00
2022-07-28T11:07:02.840Z,11200.00
2022-07-28T11:08:02.841Z,10948.00
2022-07-28T11:09:02.819Z,10720.00
2022-07-28T11:10:02.810Z,10596.00
2022-07-28T11:11:08.171Z,10124.00
2022-07-28T11:12:03.781Z,10144.00
2022-07-28T11:13:04.133Z,9796.00
2022-07-28T11:14:02.764Z,9716.00
2022-07-28T11:15:16.608Z,9544.00
2022-07-28T11:16:03.757Z,9780.00
2022-07-28T11:17:02.765Z,10588.00
2022-07-28T11:18:02.753Z,11780.00
2022-07-28T11:19:04.763Z,20384.00
2022-07-28T11:20:30.858Z,46880.00
2022-07-28T11:21:03.718Z,67904.00
2022-07-28T11:22:02.694Z,72224.00
2022-07-28T11:23:02.685Z,67040.00
2022-07-28T11:24:02.670Z,40608.00
2022-07-28T11:25:18.048Z,14620.00
2022-07-28T11:26:03.649Z,12068.00
2022-07-28T11:27:04.223Z,12128.00
2022-07-28T11:28:02.636Z,12484.00
2022-07-28T11:29:02.617Z,13612.00
2022-07-28T11:30:02.616Z,34240.00
2022-07-28T11:31:02.646Z,60896.00
2022-07-28T11:32:02.610Z,68544.00
2022-07-28T11:33:02.578Z,52576.00
2022-07-28T11:34:02.570Z,23264.00
2022-07-28T11:35:02.556Z,11384.00
2022-07-28T11:36:02.558Z,9920.00
2022-07-28T11:37:02.559Z,9564.00
2022-07-28T11:38:02.631Z,10256.00
2022-07-28T11:39:02.516Z,10652.00
2022-07-28T11:40:02.511Z,10548.00
2022-07-28T11:41:02.501Z,11192.00
2022-07-28T11:42:02.491Z,10760.00
2022-07-28T11:43:02.500Z,12532.00
2022-07-28T11:44:02.470Z,12432.00
2022-07-28T11:45:02.462Z,11540.00
2022-07-28T11:46:02.570Z,10440.00
2022-07-28T11:47:02.441Z,9628.00
2022-07-28T11:48:02.429Z,10732.00
2022-07-28T11:49:02.523Z,10080.00
2022-07-28T11:50:02.403Z,10440.00
2022-07-28T11:51:02.412Z,10472.00
2022-07-28T11:52:02.395Z,10052.00
2022-07-28T11:53:02.382Z,9840.00
2022-07-28T11:54:02.376Z,10276.00
2022-07-28T11:55:02.354Z,9636.00
2022-07-28T11:56:03.247Z,9216.00
2022-07-28T11:57:02.338Z,8996.00
2022-07-28T11:58:02.332Z,8676.00
2022-07-28T11:59:02.356Z,8124.00
2022-07-28T12:00:02.349Z,8400.00
2022-07-28T12:01:02.300Z,7600.00
2022-07-28T12:02:02.314Z,7508.00
2022-07-28T12:03:02.279Z,7728.00
2022-07-28T12:04:02.284Z,7408.00
2022-07-28T12:05:02.438Z,8668.00
2022-07-28T12:06:02.247Z,8036.00
2022-07-28T12:07:02.237Z,8016.00
2022-07-28T12:08:02.217Z,7568.00
2022-07-28T12:09:02.479Z,7220.00
2022-07-28T12:10:02.292Z,8024.00
2022-07-28T12:11:02.189Z,9668.00
2022-07-28T12:12:02.184Z,7676.00
2022-07-28T12:13:02.167Z,7240.00
2022-07-28T12:14:02.164Z,7056.00
2022-07-28T12:15:06.733Z,7424.00
2022-07-28T12:16:03.133Z,7656.00
2022-07-28T12:17:02.221Z,8548.00
2022-07-28T12:18:02.119Z,9504.00
2022-07-28T12:19:02.102Z,9392.00
2022-07-28T12:20:02.109Z,9336.00
2022-07-28T12:21:05.268Z,8564.00
2022-07-28T12:22:02.078Z,9348.00
2022-07-28T12:23:02.069Z,9072.00
2022-07-28T12:24:02.049Z,8632.00
2022-07-28T12:25:02.136Z,8476.00
2022-07-28T12:26:02.036Z,8564.00
2022-07-28T12:27:02.019Z,8620.00
2022-07-28T12:28:02.254Z,8696.00
2022-07-28T12:29:01.999Z,8752.00